Airport View

Enter ICAO identifier to see the current METAR for that AWOS.

KFNL for example

KLGB 030353Z 31007KT 10SM CLR 22/18 A2979

3 Sep 2014 04:32

Phone: 562-424-0572

Other Area AWOS: KSLI - KTOA - KFUL - KHHR

TAF KLGB 022334Z 0300/0324 19007KT P6SM SKC FM030200 30006KT P6SM SKC FM030600 VRB03KT P6SM BKN020 FM030800 VRB03KT P6SM OVC015 FM032000 20007KT P6SM SCT025